Christchurch, New Zealand

12:42 PM NZDT on February 07, 2016 (GMT +1300)
Canterbury | | Change Station
CLOSE
Current Station
Personal Weather Station
Location: Christchurch, CANTERBURY
Elevation: 36 ft
Nearby Weather Stations

Elev 36 ft 43.53 °S, 172.63 °E | Updated 1 minute ago

Overcast
Overcast
66.7 °F
Feels Like 66.7 °F
N
7.0
Wind Variable Wind from ENE
Gusts 7.0 mph

Today
High -- | Low -- °F
--% Chance of Precip.
Yesterday
High -- | Low -- °F
Precip. -- in
Pressure 30.06 in
Visibility 6.2 miles
Clouds Overcast 1700 ft
Dew Point 61 °F
Humidity 81%
Rainfall 0.02 in
Snow Depth Not available.
6:36 AM 8:49 PM
Waning Crescent, 3% visible
METAR NZCH 062330Z AUTO 06015KT 9999 OVC017/// 17/13 Q1018 NOSIG
Pressure 30.06 in
Visibility 6.2 miles
Clouds Overcast 1700 ft
Dew Point 61 °F
Humidity 81%
Rainfall 0.02 in
Snow Depth Not available.
6:36 AM 8:49 PM
Waning Crescent, 3% visible
METAR NZCH 062330Z AUTO 06015KT 9999 OVC017/// 17/13 Q1018 NOSIG

10-Day Weather Forecast

No radar image for this location.
×

Almanac

Astronomy

Feb. 07, 2016 Rise Set
Actual Time
Civil Twilight
Nautical Twilight
Astronomical Twilight
Moon
Length of Visible Light
Length of Day
Tomorrow will be .
, % of the Moon is Illuminated

Today's Extremes

Country Highs Country Lows

Community

WunderPhotos

Upload Photos

1,891,098 photos uploaded!

WunderBlog® & News

Nearby

Air Quality

  Air Quality AQ Index Pollutant
Not available.

Snow Depth

Station Depth Elevation

Earthquake Activity

City Distance Mag. Time & Date
Minimum magnitude displayed is 2.5.

Coastal Water Temperatures

Place Temperature

Stations

Nearby Weather Stations

Station Location Temp. Windchill Dew Point Humidity Wind Precip. Elev Updated Type